Time;durP1;ratioP1;P1;durP2;ratioP2;P2;SDS_P1;SDS_P2;PMS_P1;PMS_P2;Temp;Humidity;BMP_temperature;BMP_pressure;BME280_temperature;BME280_humidity;BME280_pressure;Samples;Min_cycle;Max_cycle;Signal;HPM_P1;HPM_P2
2022/10/31 00:01:39;;;;;;;23.55;9.52;;;;;;;9.66;100.00;99394.59;5139506;27;20122;-95
2022/10/31 00:04:06;;;;;;;20.48;10.02;;;;;;;9.84;100.00;99416.50;5143423;27;20039;-94
2022/10/31 00:06:32;;;;;;;22.13;9.52;;;;;;;9.74;100.00;99394.50;5139111;27;20042;-93
2022/10/31 00:08:59;;;;;;;21.65;8.50;;;;;;;9.75;100.00;99398.03;5141126;27;20395;-94
2022/10/31 00:11:26;;;;;;;19.45;8.20;;;;;;;9.77;100.00;99396.22;5140379;27;20066;-92
2022/10/31 00:13:53;;;;;;;21.80;8.98;;;;;;;9.78;100.00;99397.97;5141515;27;20130;-93
2022/10/31 00:16:21;;;;;;;16.42;8.80;;;;;;;9.75;100.00;99390.94;5139441;27;20476;-92
2022/10/31 00:18:49;;;;;;;22.83;9.15;;;;;;;9.73;100.00;99392.72;5140578;27;20038;-92
2022/10/31 00:21:16;;;;;;;18.77;8.18;;;;;;;9.72;100.00;99404.28;5139090;27;20106;-93
2022/10/31 00:23:42;;;;;;;19.85;8.82;;;;;;;9.64;100.00;99414.97;5140616;27;20064;-94
2022/10/31 00:26:07;;;;;;;18.13;8.95;;;;;;;9.54;100.00;99405.41;5140491;27;20495;-92
2022/10/31 00:28:33;;;;;;;21.10;9.40;;;;;;;9.53;100.00;99410.72;5141292;27;20039;-94
2022/10/31 00:31:01;;;;;;;20.88;8.90;;;;;;;9.46;100.00;99400.16;5138798;27;20035;-94
2022/10/31 00:33:28;;;;;;;23.30;9.75;;;;;;;9.55;100.00;99416.88;5141524;27;20039;-95
2022/10/31 00:35:54;;;;;;;18.63;9.23;;;;;;;9.44;100.00;99401.97;5140056;27;20118;-93
2022/10/31 00:38:20;;;;;;;18.92;9.73;;;;;;;9.44;100.00;99407.28;5140324;27;20069;-94
2022/10/31 00:40:46;;;;;;;21.73;9.25;;;;;;;9.47;100.00;99414.31;5142062;27;20043;-93
2022/10/31 00:43:12;;;;;;;24.25;9.52;;;;;;;9.52;100.00;99416.91;5141189;27;20050;-94
2022/10/31 00:45:38;;;;;;;22.35;9.00;;;;;;;9.54;100.00;99434.59;5140527;27;20085;-93
2022/10/31 00:48:05;;;;;;;18.58;9.57;;;;;;;9.43;100.00;99412.59;5142270;27;20038;-94
2022/10/31 00:50:31;;;;;;;22.40;9.85;;;;;;;9.39;100.00;99411.78;5140423;27;20145;-92
2022/10/31 00:52:57;;;;;;;28.42;10.90;;;;;;;9.44;100.00;99411.72;5139686;27;20070;-95
2022/10/31 00:55:24;;;;;;;25.73;10.95;;;;;;;9.44;100.00;99406.41;5140943;27;20035;-94
2022/10/31 00:57:50;;;;;;;26.48;11.77;;;;;;;9.45;100.00;99410.78;5142489;27;20039;-95
2022/10/31 01:00:16;;;;;;;25.95;11.63;;;;;;;9.45;100.00;99422.31;5138243;27;20579;-96
2022/10/31 01:02:42;;;;;;;28.35;12.07;;;;;;;9.48;100.00;99433.75;5139562;27;20038;-92
2022/10/31 01:05:10;;;;;;;25.92;11.98;;;;;;;9.31;100.00;99405.66;5139178;27;20062;-93
2022/10/31 01:07:36;;;;;;;25.73;12.45;;;;;;;9.34;100.00;99418.00;5140077;27;20035;-96
2022/10/31 01:10:02;;;;;;;29.45;11.82;;;;;;;9.38;100.00;99435.66;5138757;27;20046;-96
2022/10/31 01:12:28;;;;;;;25.73;11.45;;;;;;;9.22;100.00;99425.22;5139984;27;20039;-95
2022/10/31 01:14:54;;;;;;;26.05;11.38;;;;;;;9.11;100.00;99408.56;5139829;27;20511;-95
2022/10/31 01:17:20;;;;;;;26.38;10.77;;;;;;;9.13;100.00;99417.38;5142997;27;20043;-95
2022/10/31 01:19:46;;;;;;;27.25;11.35;;;;;;;9.09;100.00;99409.47;5139586;27;20377;-94
2022/10/31 01:22:13;;;;;;;25.00;11.68;;;;;;;9.23;100.00;99437.59;5138928;27;20042;-94
2022/10/31 01:24:39;;;;;;;28.83;11.70;;;;;;;9.25;100.00;99442.88;5137347;27;20100;-94
2022/10/31 01:27:05;;;;;;;25.75;11.30;;;;;;;9.13;100.00;99428.00;5119644;28;20127;-94
2022/10/31 01:29:31;;;;;;;24.90;11.60;;;;;;;9.06;100.00;99413.00;5122012;28;20512;-95
2022/10/31 01:31:57;;;;;;;26.13;12.38;;;;;;;9.08;100.00;99413.88;5121974;28;20059;-96
2022/10/31 01:34:23;;;;;;;35.50;12.45;;;;;;;9.14;100.00;99428.84;5121224;28;20515;-94
2022/10/31 01:36:51;;;;;;;29.38;11.60;;;;;;;9.07;100.00;99414.78;5119573;28;20043;-95
2022/10/31 01:39:19;;;;;;;25.67;11.55;;;;;;;8.97;100.00;99403.38;5119667;28;20642;-94
2022/10/31 01:41:47;;;;;;;23.20;11.55;;;;;;;8.97;100.00;99407.81;5119964;28;20036;-95
2022/10/31 01:44:55;;;;;;;26.42;12.30;;;;;;;9.17;100.00;99440.34;5117449;28;20044;-96
2022/10/31 01:47:30;;;;;;;25.92;12.20;;;;;;;9.05;100.00;99413.91;5118856;28;20051;-94
2022/10/31 01:50:00;;;;;;;28.02;12.57;;;;;;;8.93;100.00;99403.44;5119517;28;20093;-95
2022/10/31 01:52:30;;;;;;;29.52;12.10;;;;;;;9.04;100.00;99423.66;5121239;28;20401;-94
2022/10/31 01:55:01;;;;;;;28.63;12.18;;;;;;;8.96;100.00;99398.09;5119929;28;20050;-95
2022/10/31 01:57:29;;;;;;;23.05;11.85;;;;;;;9.01;100.00;99409.53;5121553;28;20040;-94
2022/10/31 01:59:59;;;;;;;29.15;12.15;;;;;;;8.99;100.00;99422.81;5118630;28;20119;-94
2022/10/31 02:02:25;;;;;;;28.67;13.30;;;;;;;8.79;100.00;99390.31;5118888;28;20416;-95
2022/10/31 02:04:53;;;;;;;24.38;12.18;;;;;;;8.74;100.00;99393.00;5118656;28;20043;-94
2022/10/31 02:07:25;;;;;;;27.20;12.35;;;;;;;8.80;100.00;99408.88;5117197;28;20047;-94
2022/10/31 02:09:53;;;;;;;26.45;12.27;;;;;;;8.71;100.00;99398.31;5118720;28;20047;-93
2022/10/31 02:12:20;;;;;;;28.55;12.35;;;;;;;8.80;100.00;99422.13;5119513;28;20078;-96
2022/10/31 02:14:46;;;;;;;28.40;11.65;;;;;;;8.68;100.00;99405.44;5119373;28;20476;-94
2022/10/31 02:17:12;;;;;;;25.33;11.77;;;;;;;8.60;100.00;99398.44;5119397;28;20046;-94
2022/10/31 02:19:48;;;;;;;21.92;10.80;;;;;;;8.61;100.00;99391.38;5118173;28;20048;-93
2022/10/31 02:22:20;;;;;;;25.27;11.43;;;;;;;8.63;100.00;99401.06;5117889;28;20040;-92
2022/10/31 02:24:58;;;;;;;23.58;10.65;;;;;;;8.79;100.00;99428.31;5120058;28;20085;-94
2022/10/31 02:27:48;;;;;;;25.50;10.63;;;;;;;8.58;100.00;99394.03;5138500;28;20430;-93
2022/10/31 02:30:15;;;;;;;;;;;;;;;8.80;100.00;99419.47;5138057;28;20271;-95
2022/10/31 02:32:52;;;;;;;25.40;10.88;;;;;;;8.68;100.00;99418.72;5136896;27;19933;-93
2022/10/31 02:35:28;;;;;;;21.35;9.65;;;;;;;8.66;100.00;99409.88;5139162;27;20039;-92
2022/10/31 02:38:03;;;;;;;19.33;9.77;;;;;;;8.56;100.00;99396.69;5142800;27;20039;-94
2022/10/31 02:40:35;;;;;;;21.23;9.60;;;;;;;8.57;100.00;99400.25;5141719;27;20167;-94
2022/10/31 02:43:12;;;;;;;19.20;9.18;;;;;;;8.63;100.00;99416.97;5141542;27;20039;-94
2022/10/31 02:45:44;;;;;;;17.50;9.45;;;;;;;8.44;100.00;99394.16;5141523;27;20043;-95
2022/10/31 02:48:18;;;;;;;19.58;8.75;;;;;;;8.48;100.00;99409.16;5143300;27;20138;-94
2022/10/31 02:50:50;;;;;;;17.92;9.18;;;;;;;8.38;100.00;99395.06;5142495;27;20039;-94
2022/10/31 02:53:16;;;;;;;23.02;9.10;;;;;;;8.32;100.00;99391.56;5141063;27;20100;-96
2022/10/31 02:55:51;;;;;;;24.95;9.18;;;;;;;8.40;100.00;99414.50;5141778;27;20063;-93
2022/10/31 02:58:21;;;;;;;20.05;9.85;;;;;;;8.35;100.00;99405.69;5140124;27;20100;-93
2022/10/31 03:01:12;;;;;;;22.92;9.20;;;;;;;8.33;100.00;99410.13;5139990;27;20096;-93
2022/10/31 03:03:53;;;;;;;22.30;9.60;;;;;;;8.39;100.00;99417.13;5140305;27;20122;-93
2022/10/31 03:06:29;;;;;;;20.42;9.48;;;;;;;8.33;100.00;99404.81;5141226;27;20076;-93
2022/10/31 03:09:03;;;;;;;24.80;10.43;;;;;;;8.32;100.00;99399.53;5141272;27;20047;-92
2022/10/31 03:11:36;;;;;;;23.90;10.13;;;;;;;8.36;100.00;99406.56;5141076;27;20035;-93
2022/10/31 03:14:09;;;;;;;23.05;10.02;;;;;;;8.26;100.00;99396.91;5141590;27;20039;-91
2022/10/31 03:16:42;;;;;;;22.27;9.98;;;;;;;8.28;100.00;99414.56;5140639;27;20041;-93
2022/10/31 03:19:14;;;;;;;26.83;9.98;;;;;;;8.23;100.00;99406.66;5139022;27;20043;-94
2022/10/31 03:21:43;;;;;;;24.67;10.90;;;;;;;8.23;100.00;99408.44;5140351;27;20130;-94
2022/10/31 03:24:11;;;;;;;19.98;10.02;;;;;;;8.16;100.00;99419.97;5138613;27;20051;-93
2022/10/31 03:26:41;;;;;;;23.08;9.82;;;;;;;8.16;100.00;99422.63;5138738;27;20054;-96
2022/10/31 03:29:10;;;;;;;23.05;10.18;;;;;;;8.21;100.00;99436.69;5139377;27;20043;-95
2022/10/31 03:31:40;;;;;;;19.02;9.25;;;;;;;8.14;100.00;99398.78;5138552;27;20047;-93
2022/10/31 03:34:09;;;;;;;22.25;9.90;;;;;;;8.15;100.00;99416.41;5138885;27;20067;-93
2022/10/31 03:36:39;;;;;;;22.42;9.93;;;;;;;8.21;100.00;99432.28;5139157;27;20043;-93
2022/10/31 03:39:10;;;;;;;19.08;9.75;;;;;;;8.18;100.00;99436.72;5138001;27;20031;-92
2022/10/31 03:41:42;;;;;;;23.65;11.20;;;;;;;8.08;100.00;99427.06;5138502;27;20107;-94
2022/10/31 03:44:12;;;;;;;17.02;8.77;;;;;;;8.21;100.00;99448.16;5138502;27;20085;-95
2022/10/31 03:46:38;;;;;;;19.02;8.55;;;;;;;8.20;100.00;99437.59;5138935;27;20031;-94
2022/10/31 03:49:04;;;;;;;20.95;9.13;;;;;;;8.00;100.00;99406.81;5139510;27;20126;-94
2022/10/31 03:51:40;;;;;;;18.95;9.30;;;;;;;8.08;100.00;99432.38;5138986;27;20046;-94
2022/10/31 03:54:13;;;;;;;18.13;9.10;;;;;;;7.93;100.00;99428.91;5138929;27;20524;-93
2022/10/31 03:56:45;;;;;;;24.15;9.10;;;;;;;7.98;100.00;99435.09;5136498;27;20039;-93
2022/10/31 03:59:18;;;;;;;22.88;9.93;;;;;;;7.94;100.00;99425.41;5134917;27;20043;-94
2022/10/31 04:01:49;;;;;;;19.60;9.27;;;;;;;8.07;100.00;99465.03;5139267;27;20063;-94
2022/10/31 04:04:15;;;;;;;22.23;10.55;;;;;;;8.02;100.00;99444.78;5137221;27;20093;-93
2022/10/31 04:06:45;;;;;;;19.17;9.30;;;;;;;7.88;100.00;99424.56;5137630;27;20050;-94
2022/10/31 04:09:12;;;;;;;22.80;10.02;;;;;;;8.06;100.00;99450.03;5137157;27;20039;-94
2022/10/31 04:11:45;;;;;;;22.52;10.38;;;;;;;7.89;100.00;99418.34;5137192;27;20122;-94
2022/10/31 04:14:12;;;;;;;23.77;9.82;;;;;;;8.02;100.00;99454.47;5137265;27;20039;-94
2022/10/31 04:16:39;;;;;;;18.25;9.15;;;;;;;7.94;100.00;99433.34;5137430;27;20039;-94
2022/10/31 04:19:05;;;;;;;20.27;9.65;;;;;;;7.94;100.00;99438.63;5137922;27;20392;-93
2022/10/31 04:21:31;;;;;;;22.20;9.80;;;;;;;7.85;100.00;99425.47;5138127;27;20039;-92
2022/10/31 04:23:58;;;;;;;21.15;9.77;;;;;;;7.93;100.00;99444.81;5138564;27;20074;-94
2022/10/31 04:26:25;;;;;;;16.50;8.50;;;;;;;7.95;100.00;99452.75;5138833;27;20054;-95
2022/10/31 04:28:51;;;;;;;16.55;8.75;;;;;;;7.86;100.00;99435.16;5138940;27;20039;-94
2022/10/31 04:31:17;;;;;;;19.88;9.27;;;;;;;7.79;100.00;99436.06;5138924;27;20045;-92
2022/10/31 04:33:43;;;;;;;18.48;8.73;;;;;;;7.80;100.00;99437.81;5139729;27;20082;-93
2022/10/31 04:36:09;;;;;;;17.02;8.52;;;;;;;7.86;100.00;99458.97;5138215;27;20119;-94
2022/10/31 04:38:35;;;;;;;18.95;9.00;;;;;;;7.84;100.00;99459.88;5140026;27;20046;-95
2022/10/31 04:41:02;;;;;;;17.15;8.35;;;;;;;7.77;100.00;99443.16;5140404;27;20035;-93
2022/10/31 04:43:28;;;;;;;19.88;9.43;;;;;;;7.89;100.00;99471.31;5139238;27;20046;-94
2022/10/31 04:45:54;;;;;;;17.13;8.60;;;;;;;7.85;100.00;99470.47;5138920;27;20126;-91
2022/10/31 04:48:20;;;;;;;20.95;8.57;;;;;;;7.65;100.00;99440.53;5139107;27;20043;-95
2022/10/31 04:50:46;;;;;;;21.40;8.95;;;;;;;7.70;100.00;99444.03;5137881;27;20046;-93
2022/10/31 04:53:12;;;;;;;20.60;8.63;;;;;;;7.64;100.00;99444.09;5140073;27;20036;-95
2022/10/31 04:55:38;;;;;;;19.52;8.95;;;;;;;7.65;100.00;99446.72;5138245;27;20047;-93
2022/10/31 04:58:05;;;;;;;20.00;9.23;;;;;;;7.50;100.00;99431.78;5138643;27;20546;-93
2022/10/31 05:00:31;;;;;;;22.95;10.75;;;;;;;7.56;100.00;99452.06;5139098;27;20108;-94
2022/10/31 05:02:58;;;;;;;17.75;8.90;;;;;;;7.54;100.00;99446.75;5141178;27;20047;-94
2022/10/31 05:05:26;;;;;;;17.55;8.95;;;;;;;7.56;100.00;99445.00;5140464;27;20039;-94
2022/10/31 05:07:52;;;;;;;16.92;9.75;;;;;;;7.43;100.00;99427.41;5139145;27;20051;-93
2022/10/31 05:10:20;;;;;;;19.38;9.27;;;;;;;7.51;100.00;99438.84;5141001;27;20046;-95
2022/10/31 05:12:49;;;;;;;20.40;9.23;;;;;;;7.45;100.00;99443.28;5142338;27;20035;-96
2022/10/31 05:15:17;;;;;;;;;;;;;;;7.60;100.00;99475.84;5142345;27;20436;-94
2022/10/31 05:17:43;;;;;;;17.25;8.57;;;;;;;7.42;100.00;99441.53;5146150;27;19919;-94
2022/10/31 05:20:10;;;;;;;17.95;9.35;;;;;;;7.38;100.00;99445.06;5141273;27;20482;-93
2022/10/31 05:22:36;;;;;;;21.92;9.93;;;;;;;7.32;100.00;99438.03;5135930;27;20036;-93
2022/10/31 05:25:02;;;;;;;22.05;10.18;;;;;;;7.39;100.00;99454.75;5138020;27;20552;-94
2022/10/31 05:27:27;;;;;;;18.38;9.25;;;;;;;7.40;100.00;99465.34;5138291;28;20067;-95
2022/10/31 05:29:53;;;;;;;19.08;9.07;;;;;;;7.31;100.00;99446.84;5137992;28;20063;-94
2022/10/31 05:32:21;;;;;;;22.08;10.77;;;;;;;7.30;100.00;99441.56;5138905;28;20035;-95
2022/10/31 05:34:47;;;;;;;24.65;10.35;;;;;;;7.46;100.00;99475.03;5138654;28;20146;-94
2022/10/31 05:37:13;;;;;;;22.63;9.95;;;;;;;7.22;100.00;99436.28;5138165;28;20066;-94
2022/10/31 05:39:38;;;;;;;23.88;9.88;;;;;;;7.23;100.00;99439.84;5138322;28;20058;-94
2022/10/31 05:42:04;;;;;;;24.00;10.73;;;;;;;7.22;100.00;99446.84;5138165;28;20142;-95
2022/10/31 05:44:30;;;;;;;28.83;12.98;;;;;;;7.22;100.00;99438.91;5139001;28;20115;-94
2022/10/31 05:46:56;;;;;;;20.70;10.13;;;;;;;7.36;100.00;99473.31;5138506;28;20392;-94
2022/10/31 05:49:24;;;;;;;21.33;10.23;;;;;;;7.28;100.00;99457.44;5138158;28;20092;-96
2022/10/31 05:51:49;;;;;;;22.95;10.38;;;;;;;7.15;100.00;99445.13;5137993;28;20039;-92
2022/10/31 05:54:15;;;;;;;23.63;10.50;;;;;;;7.23;100.00;99455.69;5138611;28;20046;-95
2022/10/31 05:56:41;;;;;;;21.33;10.45;;;;;;;7.21;100.00;99453.06;5138190;28;20414;-94
2022/10/31 05:59:07;;;;;;;25.08;10.52;;;;;;;7.29;100.00;99466.28;5137942;28;20106;-95
2022/10/31 06:01:33;;;;;;;21.63;10.50;;;;;;;7.26;100.00;99456.56;5139065;28;20488;-94
2022/10/31 06:03:59;;;;;;;19.90;9.73;;;;;;;7.30;100.00;99460.09;5138691;28;20081;-94
2022/10/31 06:06:26;;;;;;;22.25;9.80;;;;;;;7.27;100.00;99452.16;5139454;27;20507;-94
2022/10/31 06:08:52;;;;;;;19.48;9.60;;;;;;;7.32;100.00;99466.25;5141764;27;20039;-94
2022/10/31 06:11:18;;;;;;;21.42;8.45;;;;;;;7.32;100.00;99456.53;5142487;27;20050;-94
2022/10/31 06:13:44;;;;;;;23.80;9.10;;;;;;;7.57;100.00;99490.88;5144013;27;20075;-93
2022/10/31 06:16:10;;;;;;;21.23;9.20;;;;;;;7.61;100.00;99489.97;5142663;27;20111;-94
2022/10/31 06:18:36;;;;;;;22.15;9.68;;;;;;;7.63;100.00;99487.31;5141729;27;20043;-94
2022/10/31 06:21:02;;;;;;;16.30;8.60;;;;;;;7.51;100.00;99462.66;5143011;27;20476;-94
2022/10/31 06:23:29;;;;;;;21.13;8.98;;;;;;;7.73;100.00;99502.28;5141708;27;20042;-93
2022/10/31 06:25:55;;;;;;;21.52;9.30;;;;;;;7.82;100.00;99513.72;5141545;27;20146;-95
2022/10/31 06:28:21;;;;;;;22.90;9.75;;;;;;;7.76;100.00;99499.63;5142521;27;20140;-96
2022/10/31 06:30:47;;;;;;;21.52;9.38;;;;;;;7.77;100.00;99490.81;5142919;27;20043;-95
2022/10/31 06:33:12;;;;;;;21.70;10.07;;;;;;;7.82;100.00;99494.31;5143008;27;20036;-94
2022/10/31 06:35:44;;;;;;;23.13;9.32;;;;;;;7.93;100.00;99502.19;5142557;27;20508;-94
2022/10/31 06:38:10;;;;;;;19.95;9.90;;;;;;;7.86;100.00;99477.50;5143620;27;20066;-96
2022/10/31 06:40:37;;;;;;;19.73;8.73;;;;;;;8.05;100.00;99510.09;5143278;27;20055;-95
2022/10/31 06:43:03;;;;;;;23.17;10.02;;;;;;;7.96;100.00;99484.53;5142332;27;20130;-95
2022/10/31 06:45:29;;;;;;;18.30;8.90;;;;;;;8.09;100.00;99511.84;5143156;27;20078;-93
2022/10/31 06:47:56;;;;;;;17.05;9.00;;;;;;;8.08;100.00;99495.94;5142084;27;20035;-94
2022/10/31 06:50:23;;;;;;;18.67;8.98;;;;;;;8.23;100.00;99499.38;5141926;27;20039;-93
2022/10/31 06:52:52;;;;;;;22.45;8.88;;;;;;;8.24;100.00;99500.28;5143925;27;20559;-94
2022/10/31 06:55:20;;;;;;;20.23;9.93;;;;;;;8.30;100.00;99502.88;5139336;27;20167;-95
2022/10/31 06:57:51;;;;;;;19.95;9.48;;;;;;;8.30;100.00;99494.91;5144614;27;20070;-94
2022/10/31 07:00:17;;;;;;;18.65;9.57;;;;;;;8.56;100.00;99523.06;5144308;27;20039;-95
2022/10/31 07:02:43;;;;;;;20.73;9.23;;;;;;;8.71;100.00;99530.91;5143396;27;20073;-95
2022/10/31 07:05:09;;;;;;;19.92;10.18;;;;;;;8.79;100.00;99531.75;5144164;27;20042;-94
2022/10/31 07:07:35;;;;;;;22.42;9.38;;;;;;;8.76;100.00;99512.31;5145198;27;20043;-96
2022/10/31 07:10:01;;;;;;;20.83;9.30;;;;;;;8.92;100.00;99513.97;5143957;27;20511;-95
2022/10/31 07:12:27;;;;;;;17.25;8.45;;;;;;;8.96;100.00;99502.44;5143128;27;20090;-94
2022/10/31 07:14:54;;;;;;;19.92;8.13;;;;;;;9.11;100.00;99511.13;5143527;27;20480;-96
2022/10/31 07:17:23;;;;;;;13.70;7.60;;;;;;;9.27;100.00;99511.88;5143130;27;20039;-94
2022/10/31 07:19:49;;;;;;;15.70;7.75;;;;;;;9.44;100.00;99513.47;5142584;27;20043;-94
2022/10/31 07:22:15;;;;;;;13.45;7.25;;;;;;;9.57;100.00;99516.00;5140395;27;20031;-94
2022/10/31 07:24:41;;;;;;;14.10;7.50;;;;;;;10.01;100.00;99538.50;5140723;27;20148;-94
2022/10/31 07:27:07;;;;;;;14.07;7.10;;;;;;;10.11;100.00;99526.84;5135360;27;20499;-92
2022/10/31 07:29:32;;;;;;;14.27;7.47;;;;;;;10.35;100.00;99536.31;5125442;27;20035;-94
2022/10/31 07:32:00;;;;;;;11.80;6.93;;;;;;;10.41;100.00;99548.59;5122445;27;20103;-93
2022/10/31 07:34:26;;;;;;;13.20;6.30;;;;;;;10.46;100.00;99544.13;5123838;27;20031;-93
2022/10/31 07:36:52;;;;;;;15.43;7.38;;;;;;;10.52;100.00;99541.38;5120613;27;20053;-91
2022/10/31 07:39:17;;;;;;;13.35;6.13;;;;;;;10.70;99.25;99542.88;5124810;27;20097;-94
2022/10/31 07:41:43;;;;;;;14.00;6.07;;;;;;;10.81;100.00;99540.94;5131939;27;20040;-94
2022/10/31 07:44:09;;;;;;;15.02;7.28;;;;;;;10.85;99.35;99502.72;5130657;27;20099;-94
2022/10/31 07:46:35;;;;;;;15.25;7.03;;;;;;;11.02;97.72;99506.91;5127779;27;20047;-93
2022/10/31 07:49:02;;;;;;;15.13;6.32;;;;;;;11.24;96.41;99510.94;5128248;27;20039;-93
2022/10/31 07:51:29;;;;;;;13.82;6.40;;;;;;;11.47;94.57;99541.59;5121208;27;20419;-94
2022/10/31 07:53:54;;;;;;;14.23;6.72;;;;;;;11.51;93.90;99527.31;5120766;27;20101;-95
2022/10/31 07:56:20;;;;;;;20.17;7.22;;;;;;;11.80;90.60;99542.75;5125067;27;20035;-94
2022/10/31 07:58:46;;;;;;;12.40;6.28;;;;;;;11.88;91.06;99550.63;5129504;27;20041;-94
2022/10/31 08:01:12;;;;;;;11.00;6.75;;;;;;;11.95;90.52;99543.38;5120820;27;20043;-94
2022/10/31 08:03:38;;;;;;;12.90;6.38;;;;;;;11.77;90.44;99523.28;5129019;27;20043;-92
2022/10/31 08:06:05;;;;;;;13.68;6.32;;;;;;;11.58;92.86;99520.97;5127149;27;20134;-94
2022/10/31 08:08:32;;;;;;;13.07;6.15;;;;;;;11.80;93.08;99537.44;5121016;27;20130;-95
2022/10/31 08:10:58;;;;;;;11.48;6.72;;;;;;;11.81;93.15;99525.84;5130646;27;20074;-96
2022/10/31 08:13:25;;;;;;;12.30;6.43;;;;;;;11.94;93.64;99529.16;5128673;28;20043;-95
2022/10/31 08:15:53;;;;;;;13.02;6.45;;;;;;;12.20;93.91;99547.28;5139272;27;20043;-94
2022/10/31 08:18:21;;;;;;;12.40;6.30;;;;;;;12.30;90.70;99507.97;5135154;27;20089;-96
2022/10/31 08:20:47;;;;;;;13.30;6.68;;;;;;;12.75;88.74;99531.81;5124884;27;20101;-95
2022/10/31 08:23:15;;;;;;;18.00;6.15;;;;;;;12.76;87.29;99496.22;5131031;27;20031;-94
2022/10/31 08:25:46;;;;;;;10.07;5.55;;;;;;;12.92;87.85;99505.63;5135440;27;20054;-94
2022/10/31 08:28:13;;;;;;;12.60;6.25;;;;;;;13.09;87.59;99505.19;5140165;27;20043;-95
2022/10/31 08:30:40;;;;;;;13.43;6.32;;;;;;;13.21;87.12;99498.66;5143534;27;20049;-94
2022/10/31 08:33:09;;;;;;;9.05;5.65;;;;;;;13.42;83.33;99507.91;5140333;27;20043;-95
2022/10/31 08:35:36;;;;;;;11.80;6.38;;;;;;;13.25;84.26;99488.75;5145970;27;20031;-95
2022/10/31 08:38:02;;;;;;;14.82;6.90;;;;;;;13.18;83.70;99504.06;5137638;27;20055;-94
2022/10/31 08:40:33;;;;;;;15.00;8.10;;;;;;;13.44;83.68;99523.91;5140923;27;20102;-94
2022/10/31 08:43:00;;;;;;;26.63;11.45;;;;;;;13.45;82.18;99510.53;5134626;27;20130;-94
2022/10/31 08:45:27;;;;;;;30.88;10.80;;;;;;;13.26;84.42;99518.09;5133476;27;20047;-95
2022/10/31 08:47:57;;;;;;;15.80;9.60;;;;;;;13.19;83.98;99496.97;5128708;27;20388;-96
2022/10/31 08:50:23;;;;;;;15.10;8.68;;;;;;;13.42;83.60;99491.00;5133877;27;20057;-96
2022/10/31 08:52:49;;;;;;;15.00;8.65;;;;;;;13.59;82.33;99493.22;5141668;27;20054;-95
2022/10/31 08:55:15;;;;;;;14.13;7.00;;;;;;;13.84;80.41;99496.09;5142632;27;20372;-96
2022/10/31 08:57:43;;;;;;;14.23;7.18;;;;;;;14.12;80.66;99504.19;5144238;27;20044;-95
2022/10/31 09:00:10;;;;;;;18.42;7.47;;;;;;;14.17;79.81;99487.06;5139334;27;20075;-95
2022/10/31 09:02:38;;;;;;;15.05;7.57;;;;;;;14.47;77.13;99497.75;5142263;27;20043;-95
2022/10/31 09:05:04;;;;;;;14.70;9.13;;;;;;;14.54;76.25;99483.25;5143837;27;20039;-96
2022/10/31 09:07:31;;;;;;;14.98;8.10;;;;;;;14.62;76.75;99476.84;5145709;27;20035;-95
2022/10/31 09:09:57;;;;;;;18.27;11.95;;;;;;;14.89;76.89;99509.84;5134075;27;20039;-96
2022/10/31 09:12:23;;;;;;;19.23;10.40;;;;;;;14.90;76.17;99490.19;5142866;27;20102;-96
2022/10/31 09:15:10;;;;;;;19.58;9.40;;;;;;;15.10;77.07;99511.81;5142392;27;20043;-96
2022/10/31 09:17:36;;;;;;;11.32;6.30;;;;;;;15.04;77.35;99479.88;5141759;27;20092;-96
2022/10/31 09:20:03;;;;;;;12.15;6.13;;;;;;;15.13;76.57;99482.22;5144012;27;20051;-95
2022/10/31 09:22:29;;;;;;;10.52;5.63;;;;;;;15.28;77.42;99490.69;5150100;27;20129;-95
2022/10/31 09:24:55;;;;;;;14.07;5.80;;;;;;;15.37;76.81;99482.31;5138803;27;20146;-95
2022/10/31 09:27:23;;;;;;;11.77;6.05;;;;;;;15.54;76.56;99495.97;5120777;28;20042;-94
2022/10/31 09:29:49;;;;;;;11.05;5.85;;;;;;;15.53;75.69;99486.22;5120628;28;20047;-94
2022/10/31 09:32:16;;;;;;;23.15;11.70;;;;;;;15.57;74.85;99486.94;5127589;28;20401;-94
2022/10/31 09:34:42;;;;;;;141.68;44.00;;;;;;;15.61;74.59;99489.50;5120982;28;20063;-94
2022/10/31 09:37:08;;;;;;;194.27;87.70;;;;;;;15.66;74.85;99483.06;5119186;28;20054;-94
2022/10/31 09:39:34;;;;;;;51.17;27.70;;;;;;;15.69;73.86;99473.09;5127004;28;20051;-96
2022/10/31 09:42:33;;;;;;;52.17;27.83;;;;;;;15.69;74.19;99478.47;5125357;27;20036;-93
2022/10/31 09:45:08;;;;;;;15.75;7.72;;;;;;;15.87;73.37;99485.00;5112776;28;20067;-96
2022/10/31 09:47:52;;;;;;;79.80;31.50;;;;;;;15.80;73.34;99473.63;5117626;28;20035;-96
2022/10/31 09:50:21;;;;;;;52.55;23.17;;;;;;;15.91;73.63;99478.59;5127868;27;20075;-95
2022/10/31 09:52:54;;;;;;;51.70;18.80;;;;;;;15.91;73.98;99475.03;5127395;27;20039;-95
2022/10/31 09:55:27;;;;;;;32.72;15.20;;;;;;;16.05;72.79;99470.03;5129600;27;20043;-96
2022/10/31 09:57:54;;;;;;;17.15;8.90;;;;;;;16.31;72.20;99497.63;5123838;28;20050;-95
2022/10/31 10:00:22;;;;;;;11.93;5.88;;;;;;;16.22;71.83;99467.56;5124707;28;20048;-96
2022/10/31 10:02:56;;;;;;;15.43;6.00;;;;;;;16.32;70.85;99473.44;5119777;28;20040;-95
2022/10/31 10:05:28;;;;;;;12.75;5.53;;;;;;;16.35;71.66;99459.00;5123707;28;20043;-96
2022/10/31 10:08:03;;;;;;;11.80;5.50;;;;;;;16.57;71.62;99478.72;5135453;27;20031;-95
2022/10/31 10:10:44;;;;;;;9.98;5.28;;;;;;;16.55;70.72;99479.72;5129141;28;20055;-95
2022/10/31 10:13:31;;;;;;;11.40;5.20;;;;;;;16.59;70.67;99471.47;5122290;27;20039;-94
2022/10/31 10:16:21;;;;;;;12.52;5.60;;;;;;;16.60;70.11;99462.47;5115080;28;20380;-94
2022/10/31 10:19:00;;;;;;;13.93;5.50;;;;;;;16.75;70.88;99492.34;5122813;28;20043;-95
2022/10/31 10:21:37;;;;;;;11.43;5.57;;;;;;;16.56;69.57;99458.16;5125251;27;20047;-96
2022/10/31 10:24:21;;;;;;;12.60;5.78;;;;;;;16.55;69.42;99468.97;5124925;28;20032;-96
2022/10/31 10:26:55;;;;;;;10.32;4.95;;;;;;;16.50;69.99;99450.34;5145439;27;20054;-95
2022/10/31 10:29:31;;;;;;;11.43;5.57;;;;;;;16.64;70.03;99466.78;5145412;27;20035;-96
2022/10/31 10:32:01;;;;;;;13.27;5.22;;;;;;;16.62;69.20;99465.09;5139893;27;20039;-95
2022/10/31 10:34:33;;;;;;;10.65;5.25;;;;;;;16.66;69.83;99465.88;5147678;27;20520;-96
2022/10/31 10:37:04;;;;;;;11.07;4.97;;;;;;;16.51;69.54;99437.81;5147280;27;20054;-95
2022/10/31 10:39:37;;;;;;;12.70;5.30;;;;;;;16.49;69.40;99439.69;5145877;27;20039;-96
2022/10/31 10:48:36;;;;;;;13.98;5.47;;;;;;;16.61;67.98;99440.06;5097876;27;20382;-96
2022/10/31 10:51:06;;;;;;;10.23;5.30;;;;;;;16.62;68.83;99444.47;5098078;28;20067;-96
2022/10/31 10:53:59;;;;;;;14.25;5.03;;;;;;;16.74;67.83;99439.53;5100880;28;20580;-95
2022/10/31 10:56:37;;;;;;;9.77;5.28;;;;;;;16.79;68.24;99440.25;5098110;28;20051;-95
2022/10/31 10:59:04;;;;;;;10.53;5.20;;;;;;;16.82;67.64;99429.38;5094390;28;20037;-94
2022/10/31 11:01:30;;;;;;;9.50;4.82;;;;;;;16.92;66.68;99432.56;5097671;28;20291;-96
2022/10/31 11:03:57;;;;;;;14.43;6.30;;;;;;;17.12;66.58;99455.91;5096977;28;20048;-96
2022/10/31 11:06:26;;;;;;;11.32;5.38;;;;;;;16.97;66.46;99431.41;5096865;28;20059;-95
2022/10/31 11:08:52;;;;;;;17.37;5.60;;;;;;;17.01;66.85;99434.88;5096822;28;20044;-95
2022/10/31 11:11:26;;;;;;;18.40;5.55;;;;;;;17.17;65.62;99441.31;5096188;28;20052;-95
2022/10/31 11:13:57;;;;;;;16.73;5.50;;;;;;;17.16;64.22;99427.97;5089378;28;20096;-96
2022/10/31 11:16:29;;;;;;;12.85;5.68;;;;;;;17.21;63.38;99412.50;5098982;28;20044;-96
2022/10/31 11:19:09;;;;;;;11.05;5.00;;;;;;;17.27;64.55;99414.91;5098241;28;20047;-95
2022/10/31 11:21:35;;;;;;;10.77;5.05;;;;;;;17.36;63.90;99424.38;5096256;28;20037;-95
2022/10/31 11:24:03;;;;;;;18.08;5.97;;;;;;;17.40;62.98;99423.31;5097587;28;20048;-96
2022/10/31 11:26:29;;;;;;;39.50;7.45;;;;;;;17.35;62.57;99417.25;5097628;28;20068;-95
2022/10/31 11:28:58;;;;;;;28.58;6.82;;;;;;;17.41;63.25;99414.28;5097741;28;20040;-96
2022/10/31 11:31:26;;;;;;;15.15;5.40;;;;;;;17.52;63.93;99425.47;5096888;28;20105;-95
2022/10/31 11:33:58;;;;;;;15.27;4.60;;;;;;;17.42;63.52;99403.47;5097502;28;20060;-94
2022/10/31 11:36:29;;;;;;;11.90;5.70;;;;;;;17.64;64.20;99427.56;5097705;28;20398;-96
2022/10/31 11:38:55;;;;;;;10.18;5.10;;;;;;;17.53;63.41;99399.44;5096327;28;20040;-96